Time;durP1;ratioP1;P1;durP2;ratioP2;P2;SDS_P1;SDS_P2;PMS_P1;PMS_P2;Temp;Humidity;BMP_temperature;BMP_pressure;BME280_temperature;BME280_humidity;BME280_pressure;Samples;Min_cycle;Max_cycle;Signal;HPM_P1;HPM_P2
2022/08/21 00:01:32;;;;;;;;;;;20.80;53.10;;;;;;5141930;27;19981;-46
2022/08/21 00:04:03;;;;;;;;;;;20.30;52.50;;;;;;5144058;27;19923;-45
2022/08/21 00:06:28;;;;;;;;;;;19.90;52.00;;;;;;5149797;27;19923;-46
2022/08/21 00:08:54;;;;;;;;;;;19.80;51.30;;;;;;5144205;27;19927;-45
2022/08/21 00:11:20;;;;;;;;;;;19.50;51.20;;;;;;5146108;27;20055;-51
2022/08/21 00:13:46;;;;;;;;;;;20.20;55.50;;;;;;5147818;27;19927;-50
2022/08/21 00:16:12;;;;;;;;;;;21.20;54.80;;;;;;5139840;27;20017;-46
2022/08/21 00:18:37;;;;;;;;;;;21.80;52.90;;;;;;5148803;27;20412;-46
2022/08/21 00:21:05;;;;;;;;;;;20.60;53.10;;;;;;5143912;27;19923;-46
2022/08/21 00:23:32;;;;;;;;;;;20.30;52.10;;;;;;5143913;27;19945;-46
2022/08/21 00:25:58;;;;;;;;;;;20.00;51.30;;;;;;5148087;27;19962;-46
2022/08/21 00:28:24;;;;;;;;;;;19.70;51.10;;;;;;5143879;27;20301;-49
2022/08/21 00:30:50;;;;;;;;;;;20.00;54.40;;;;;;5143987;27;19931;-46
2022/08/21 00:33:16;;;;;;;;;;;20.90;55.00;;;;;;5146483;27;19923;-47
2022/08/21 00:35:42;;;;;;;;;;;21.80;53.00;;;;;;5141316;27;20419;-46
2022/08/21 00:38:08;;;;;;;;;;;20.80;53.00;;;;;;5148250;27;20017;-46
2022/08/21 00:40:37;;;;;;;;;;;20.00;52.30;;;;;;5143361;27;20404;-46
2022/08/21 00:43:03;;;;;;;;;;;19.80;51.80;;;;;;5124998;27;19923;-45
2022/08/21 00:45:29;;;;;;;;;;;19.60;52.50;;;;;;5148963;27;19923;-45
2022/08/21 00:47:55;;;;;;;;;;;20.40;55.70;;;;;;5141918;27;19923;-46
2022/08/21 00:50:21;;;;;;;;;;;21.40;54.20;;;;;;5143455;27;20409;-44
2022/08/21 00:52:47;;;;;;;;;;;21.30;52.80;;;;;;5144280;27;19969;-44
2022/08/21 00:55:12;;;;;;;;;;;20.50;52.40;;;;;;5142456;27;20337;-45
2022/08/21 00:57:45;;;;;;;;;;;20.10;51.80;;;;;;5147066;27;20032;-49
2022/08/21 01:00:13;;;;;;;;;;;19.80;51.40;;;;;;5144885;27;19923;-48
2022/08/21 01:02:39;;;;;;;;;;;19.60;50.80;;;;;;5142857;27;20023;-45
2022/08/21 01:05:05;;;;;;;;;;;20.30;55.40;;;;;;5148418;27;19923;-44
2022/08/21 01:07:31;;;;;;;;;;;21.10;54.80;;;;;;5142898;27;19923;-46
2022/08/21 01:09:57;;;;;;;;;;;21.50;52.80;;;;;;5140466;27;19981;-45
2022/08/21 01:12:23;;;;;;;;;;;20.50;52.70;;;;;;5145969;27;20263;-45
2022/08/21 01:14:49;;;;;;;;;;;20.10;52.10;;;;;;5142585;27;19923;-45
2022/08/21 01:17:15;;;;;;;;;;;19.80;51.60;;;;;;5142906;27;19936;-44
2022/08/21 01:19:42;;;;;;;;;;;19.60;51.20;;;;;;5148389;27;20021;-44
2022/08/21 01:22:08;;;;;;;;;;;20.30;55.50;;;;;;5142808;27;19927;-46
2022/08/21 01:24:34;;;;;;;;;;;21.10;54.80;;;;;;5148275;27;19927;-44
2022/08/21 01:26:59;;;;;;;;;;;21.40;52.80;;;;;;5142821;27;19923;-46
2022/08/21 01:29:48;;;;;;;;;;;20.50;52.60;;;;;;5138376;27;20599;-52
2022/08/21 01:32:15;;;;;;;;;;;20.10;52.10;;;;;;5138943;27;19975;-45
2022/08/21 01:34:42;;;;;;;;;;;19.80;51.30;;;;;;5142736;27;19960;-48
2022/08/21 01:37:08;;;;;;;;;;;19.70;50.70;;;;;;5142769;27;20025;-46
2022/08/21 01:39:34;;;;;;;;;;;20.20;54.90;;;;;;5148217;27;19927;-46
2022/08/21 01:42:00;;;;;;;;;;;20.90;55.20;;;;;;5142601;27;19923;-46
2022/08/21 01:44:26;;;;;;;;;;;21.80;53.00;;;;;;5142327;27;20081;-45
2022/08/21 01:46:52;;;;;;;;;;;20.70;52.60;;;;;;5144995;27;20314;-48
2022/08/21 01:49:18;;;;;;;;;;;20.30;52.00;;;;;;5140313;27;19973;-46
2022/08/21 01:51:43;;;;;;;;;;;19.80;51.80;;;;;;5146764;27;19927;-49
2022/08/21 01:54:10;;;;;;;;;;;19.60;51.30;;;;;;5142336;27;19927;-48
2022/08/21 01:56:39;;;;;;;;;;;20.20;55.10;;;;;;5142458;27;20397;-45
2022/08/21 01:59:04;;;;;;;;;;;21.00;54.80;;;;;;5147951;27;20457;-45
2022/08/21 02:01:30;;;;;;;;;;;21.70;52.70;;;;;;5142342;27;20043;-45
2022/08/21 02:03:56;;;;;;;;;;;20.50;52.90;;;;;;5141983;27;19923;-46
2022/08/21 02:06:21;;;;;;;;;;;20.10;52.10;;;;;;5142687;27;19930;-48
2022/08/21 02:08:47;;;;;;;;;;;19.90;51.20;;;;;;5141196;27;19980;-46
2022/08/21 02:11:13;;;;;;;;;;;19.70;51.10;;;;;;5146754;27;19993;-53
2022/08/21 02:13:39;;;;;;;;;;;20.10;54.90;;;;;;5143287;27;20301;-47
2022/08/21 02:16:06;;;;;;;;;;;21.00;54.80;;;;;;5123779;27;19923;-44
2022/08/21 02:18:32;;;;;;;;;;;21.70;52.90;;;;;;5147523;27;19930;-45
2022/08/21 02:20:58;;;;;;;;;;;20.70;52.80;;;;;;5141987;27;20278;-46
2022/08/21 02:23:23;;;;;;;;;;;20.10;52.10;;;;;;5139406;27;20169;-48
2022/08/21 02:25:49;;;;;;;;;;;19.80;51.60;;;;;;5126441;27;20026;-45
2022/08/21 02:28:15;;;;;;;;;;;19.80;53.80;;;;;;5141597;27;20447;-45
2022/08/21 02:30:42;;;;;;;;;;;20.70;55.50;;;;;;5142701;27;20401;-53
2022/08/21 02:33:09;;;;;;;;;;;21.60;53.50;;;;;;5146103;27;19923;-44
2022/08/21 02:35:35;;;;;;;;;;;20.90;52.60;;;;;;5141596;27;20370;-46
2022/08/21 02:38:03;;;;;;;;;;;20.20;52.40;;;;;;5147100;27;19924;-45
2022/08/21 02:40:31;;;;;;;;;;;19.80;52.00;;;;;;5141850;27;20010;-49
2022/08/21 02:42:57;;;;;;;;;;;19.70;51.00;;;;;;5137339;27;19923;-49
2022/08/21 02:45:23;;;;;;;;;;;20.20;55.70;;;;;;5146392;27;20356;-45
2022/08/21 02:47:50;;;;;;;;;;;21.20;54.50;;;;;;5141337;27;19930;-44
2022/08/21 02:50:17;;;;;;;;;;;21.40;52.50;;;;;;5141744;27;20171;-45
2022/08/21 02:52:43;;;;;;;;;;;20.50;52.30;;;;;;5147372;27;19923;-45
2022/08/21 02:55:08;;;;;;;;;;;20.00;51.90;;;;;;5141906;27;19923;-45
2022/08/21 02:57:35;;;;;;;;;;;19.80;51.40;;;;;;5147196;27;19931;-46
2022/08/21 03:00:01;;;;;;;;;;;19.90;53.20;;;;;;5139239;27;20016;-45
2022/08/21 03:02:27;;;;;;;;;;;20.80;55.40;;;;;;5141148;27;20217;-46
2022/08/21 03:04:53;;;;;;;;;;;21.60;53.40;;;;;;5150596;27;19934;-45
2022/08/21 03:07:19;;;;;;;;;;;20.80;52.70;;;;;;5145551;27;19924;-46
2022/08/21 03:09:45;;;;;;;;;;;20.20;52.50;;;;;;5145537;27;20461;-47
2022/08/21 03:12:11;;;;;;;;;;;19.80;51.70;;;;;;5151069;27;20018;-46
2022/08/21 03:14:38;;;;;;;;;;;19.80;51.30;;;;;;5145290;27;19923;-45
2022/08/21 03:17:04;;;;;;;;;;;19.80;52.60;;;;;;5149349;27;19923;-56
2022/08/21 03:19:30;;;;;;;;;;;20.70;55.30;;;;;;5143475;27;19923;-49
2022/08/21 03:21:55;;;;;;;;;;;21.50;53.90;;;;;;5144272;27;19930;-45
2022/08/21 03:24:21;;;;;;;;;;;21.00;52.70;;;;;;5150393;27;20339;-48
2022/08/21 03:26:47;;;;;;;;;;;20.30;52.00;;;;;;5145053;27;19927;-45
2022/08/21 03:29:13;;;;;;;;;;;19.90;51.70;;;;;;5145139;27;19927;-46
2022/08/21 03:31:39;;;;;;;;;;;19.70;51.20;;;;;;5150454;27;20014;-46
2022/08/21 03:34:04;;;;;;;;;;;19.70;51.90;;;;;;5144990;27;19989;-46
2022/08/21 03:36:30;;;;;;;;;;;20.40;55.50;;;;;;5144712;27;20363;-51
2022/08/21 03:38:56;;;;;;;;;;;21.30;54.10;;;;;;5145670;27;20230;-45
2022/08/21 03:41:22;;;;;;;;;;;20.90;52.80;;;;;;5144415;27;19978;-49
2022/08/21 03:43:47;;;;;;;;;;;20.20;52.40;;;;;;5150147;27;20436;-49
2022/08/21 03:46:13;;;;;;;;;;;19.80;52.00;;;;;;5144881;27;19934;-49
2022/08/21 03:48:39;;;;;;;;;;;19.50;51.50;;;;;;5144740;27;20417;-46
2022/08/21 03:51:06;;;;;;;;;;;20.00;54.80;;;;;;5150128;27;19923;-45
2022/08/21 03:53:32;;;;;;;;;;;20.80;55.30;;;;;;5143488;27;19927;-45
2022/08/21 03:55:58;;;;;;;;;;;21.60;53.10;;;;;;5140651;27;19923;-51
2022/08/21 03:58:25;;;;;;;;;;;20.50;53.20;;;;;;5148578;27;19983;-45
2022/08/21 04:00:51;;;;;;;;;;;20.00;52.40;;;;;;5144229;27;20023;-45
2022/08/21 04:03:17;;;;;;;;;;;19.80;51.50;;;;;;5149630;27;20395;-47
2022/08/21 04:05:44;;;;;;;;;;;19.80;53.90;;;;;;5144416;27;19934;-46
2022/08/21 04:08:10;;;;;;;;;;;20.70;55.50;;;;;;5144310;27;21286;-45
2022/08/21 04:10:36;;;;;;;;;;;21.60;53.40;;;;;;5149774;27;19931;-45
2022/08/21 04:13:02;;;;;;;;;;;20.80;53.00;;;;;;5142653;27;19973;-46
2022/08/21 04:15:31;;;;;;;;;;;20.20;52.10;;;;;;5139837;27;19923;-46
2022/08/21 04:17:57;;;;;;;;;;;20.00;51.20;;;;;;5149063;27;19931;-45
2022/08/21 04:20:23;;;;;;;;;;;19.70;51.20;;;;;;5143975;27;19927;-46
2022/08/21 04:22:50;;;;;;;;;;;19.80;54.40;;;;;;5149174;27;19927;-55
2022/08/21 04:25:15;;;;;;;;;;;20.80;55.20;;;;;;5145063;27;19931;-45
2022/08/21 04:27:41;;;;;;;;;;;21.60;53.30;;;;;;5144156;27;19931;-46
2022/08/21 04:30:08;;;;;;;;;;;20.60;52.70;;;;;;5130931;27;20011;-49
2022/08/21 04:32:37;;;;;;;;;;;20.10;51.90;;;;;;5140535;27;19927;-46
2022/08/21 04:35:04;;;;;;;;;;;19.70;51.70;;;;;;5141767;27;19926;-46
2022/08/21 04:37:30;;;;;;;;;;;19.60;51.00;;;;;;5148972;27;20005;-46
2022/08/21 04:39:57;;;;;;;;;;;20.20;55.90;;;;;;5143606;27;19977;-48
2022/08/21 04:42:26;;;;;;;;;;;21.20;54.60;;;;;;5143712;27;20378;-49
2022/08/21 04:44:52;;;;;;;;;;;21.60;53.30;;;;;;5149114;27;20017;-57
2022/08/21 04:47:17;;;;;;;;;;;21.40;53.00;;;;;;5143425;27;19977;-57
2022/08/21 04:49:43;;;;;;;;;;;21.30;52.60;;;;;;5148068;27;20417;-53
2022/08/21 04:52:09;;;;;;;;;;;21.40;52.10;;;;;;5139414;27;20065;-57
2022/08/21 04:54:35;;;;;;;;;;;21.40;51.80;;;;;;5141701;27;19927;-57
2022/08/21 04:57:03;;;;;;;;;;;21.50;51.60;;;;;;5147615;27;19923;-58
2022/08/21 04:59:40;;;;;;;;;;;21.50;51.50;;;;;;5142213;27;20021;-53
2022/08/21 05:02:06;;;;;;;;;;;21.50;51.30;;;;;;5143430;27;20301;-55
2022/08/21 05:04:32;;;;;;;;;;;21.50;51.40;;;;;;5147540;27;19923;-55
2022/08/21 05:07:00;;;;;;;;;;;21.70;50.90;;;;;;5143382;27;20323;-57
2022/08/21 05:09:25;;;;;;;;;;;21.70;50.60;;;;;;5138147;27;19972;-57
2022/08/21 05:11:52;;;;;;;;;;;21.60;50.70;;;;;;5145065;27;19923;-56
2022/08/21 05:14:19;;;;;;;;;;;21.70;50.50;;;;;;5142653;27;19929;-57
2022/08/21 05:16:45;;;;;;;;;;;21.70;50.40;;;;;;5148593;27;20289;-56
2022/08/21 05:19:10;;;;;;;;;;;21.80;50.10;;;;;;5143328;27;20186;-58
2022/08/21 05:21:37;;;;;;;;;;;21.90;49.80;;;;;;5143021;27;20008;-58
2022/08/21 05:24:03;;;;;;;;;;;21.80;49.90;;;;;;5146641;27;19937;-57
2022/08/21 05:26:29;;;;;;;;;;;22.00;49.60;;;;;;5141930;27;20033;-57
2022/08/21 05:28:55;;;;;;;;;;;22.00;49.40;;;;;;5138511;27;19926;-57
2022/08/21 05:31:22;;;;;;;;;;;21.90;49.40;;;;;;5146438;27;19930;-56
2022/08/21 05:33:47;;;;;;;;;;;21.30;50.10;;;;;;5142655;27;19991;-57
2022/08/21 05:36:13;;;;;;;;;;;21.30;50.80;;;;;;5148460;27;19923;-56
2022/08/21 05:38:39;;;;;;;;;;;21.30;51.70;;;;;;5142862;27;20387;-55
2022/08/21 05:41:05;;;;;;;;;;;21.50;51.20;;;;;;5142755;27;19931;-56
2022/08/21 05:43:32;;;;;;;;;;;21.60;51.00;;;;;;5147996;27;19923;-57
2022/08/21 05:45:58;;;;;;;;;;;21.60;50.80;;;;;;5139362;27;19927;-56
2022/08/21 05:48:24;;;;;;;;;;;21.60;50.40;;;;;;5140420;27;20383;-57
2022/08/21 05:50:50;;;;;;;;;;;21.70;50.30;;;;;;5147595;27;19957;-58
2022/08/21 05:53:16;;;;;;;;;;;21.70;50.20;;;;;;5141357;27;19923;-57
2022/08/21 05:55:43;;;;;;;;;;;21.70;50.20;;;;;;5148007;27;19923;-59
2022/08/21 05:58:08;;;;;;;;;;;21.70;50.10;;;;;;5143040;27;20067;-57
2022/08/21 06:00:34;;;;;;;;;;;21.70;50.00;;;;;;5142387;27;19923;-59
2022/08/21 06:03:00;;;;;;;;;;;21.80;49.80;;;;;;5147645;27;20021;-56
2022/08/21 06:05:26;;;;;;;;;;;21.80;49.80;;;;;;5137605;27;19927;-59
2022/08/21 06:07:52;;;;;;;;;;;21.80;49.90;;;;;;5141631;27;20051;-58
2022/08/21 06:10:18;;;;;;;;;;;21.80;49.70;;;;;;5147838;27;19927;-59
2022/08/21 06:12:43;;;;;;;;;;;21.80;49.60;;;;;;5142373;27;19927;-58
2022/08/21 06:15:09;;;;;;;;;;;21.80;49.60;;;;;;5145030;27;19923;-57
2022/08/21 06:17:35;;;;;;;;;;;21.90;49.40;;;;;;5144986;27;19930;-58
2022/08/21 06:20:01;;;;;;;;;;;21.90;49.30;;;;;;5142216;27;20234;-58
2022/08/21 06:22:27;;;;;;;;;;;21.90;49.40;;;;;;5144397;27;19923;-56
2022/08/21 06:24:52;;;;;;;;;;;22.00;49.20;;;;;;5138597;27;19957;-57
2022/08/21 06:27:18;;;;;;;;;;;21.90;49.20;;;;;;5141767;27;20389;-59
2022/08/21 06:29:44;;;;;;;;;;;21.90;49.50;;;;;;5147407;27;19927;-59
2022/08/21 06:32:11;;;;;;;;;;;21.90;49.90;;;;;;5141900;27;19946;-59
2022/08/21 06:34:37;;;;;;;;;;;21.80;50.00;;;;;;5142072;27;19923;-56
2022/08/21 06:37:03;;;;;;;;;;;21.90;49.90;;;;;;5148721;27;19922;-59
2022/08/21 06:39:29;;;;;;;;;;;22.00;49.50;;;;;;5146065;27;20414;-59
2022/08/21 06:41:55;;;;;;;;;;;21.80;49.60;;;;;;5146915;27;19966;-59
2022/08/21 06:44:21;;;;;;;;;;;20.30;51.90;;;;;;5145463;27;19934;-58
2022/08/21 06:46:47;;;;;;;;;;;19.90;52.80;;;;;;5144941;27;20047;-59
2022/08/21 06:49:12;;;;;;;;;;;20.40;55.20;;;;;;5151521;27;19923;-61
2022/08/21 06:51:38;;;;;;;;;;;21.00;53.20;;;;;;5146537;27;19927;-60
2022/08/21 06:54:04;;;;;;;;;;;21.40;51.80;;;;;;5146056;27;20010;-59
2022/08/21 06:56:30;;;;;;;;;;;21.50;51.50;;;;;;5151435;27;19961;-58
2022/08/21 06:58:56;;;;;;;;;;;21.60;51.30;;;;;;5143400;27;20021;-59
2022/08/21 07:01:23;;;;;;;;;;;21.70;51.10;;;;;;5148785;27;20340;-58
2022/08/21 07:03:49;;;;;;;;;;;21.80;50.80;;;;;;5144310;27;20013;-60
2022/08/21 07:06:15;;;;;;;;;;;21.80;50.30;;;;;;5145666;27;19923;-60
2022/08/21 07:08:41;;;;;;;;;;;21.90;49.90;;;;;;5151062;27;20304;-59
2022/08/21 07:11:09;;;;;;;;;;;21.90;49.70;;;;;;5145525;27;19926;-59
2022/08/21 07:13:35;;;;;;;;;;;21.90;49.60;;;;;;5145433;27;20466;-58
2022/08/21 07:16:01;;;;;;;;;;;21.90;49.70;;;;;;5150885;27;19927;-61
2022/08/21 07:18:27;;;;;;;;;;;22.00;50.00;;;;;;5141175;27;19927;-58
2022/08/21 07:20:53;;;;;;;;;;;22.00;49.70;;;;;;5149269;27;20033;-61
2022/08/21 07:23:28;;;;;;;;;;;21.90;49.80;;;;;;5146266;27;19931;-59
2022/08/21 07:25:54;;;;;;;;;;;20.80;51.80;;;;;;5146138;27;19923;-58
2022/08/21 07:28:20;;;;;;;;;;;20.20;52.90;;;;;;5150860;27;19923;-59
2022/08/21 07:30:46;;;;;;;;;;;19.90;55.00;;;;;;5145793;27;20017;-60
2022/08/21 07:33:12;;;;;;;;;;;20.80;55.70;;;;;;5145655;27;19927;-60
2022/08/21 07:35:38;;;;;;;;;;;21.80;52.70;;;;;;5148634;27;20423;-55
2022/08/21 07:38:04;;;;;;;;;;;20.90;52.90;;;;;;5143701;27;19923;-57
2022/08/21 07:40:30;;;;;;;;;;;20.80;53.00;;;;;;5145935;27;19989;-57
2022/08/21 07:42:56;;;;;;;;;;;20.40;53.80;;;;;;5150777;27;19927;-56
2022/08/21 07:45:22;;;;;;;;;;;20.40;53.80;;;;;;5146037;27;19981;-58
2022/08/21 07:47:48;;;;;;;;;;;20.30;54.20;;;;;;5150155;27;19929;-55
2022/08/21 07:50:14;;;;;;;;;;;20.30;54.40;;;;;;5145418;27;19923;-54
2022/08/21 07:52:40;;;;;;;;;;;20.30;54.10;;;;;;5144980;27;19979;-48
2022/08/21 07:55:07;;;;;;;;;;;20.30;53.90;;;;;;5144400;27;20346;-49
2022/08/21 07:57:32;;;;;;;;;;;20.10;54.50;;;;;;5143842;27;19943;-47
2022/08/21 07:59:58;;;;;;;;;;;20.30;54.00;;;;;;5144212;27;20406;-49
2022/08/21 08:02:28;;;;;;;;;;;20.20;54.30;;;;;;5149911;27;19923;-47
2022/08/21 08:04:53;;;;;;;;;;;20.30;54.10;;;;;;5144456;27;19957;-46
2022/08/21 08:07:19;;;;;;;;;;;20.30;54.30;;;;;;5149642;27;19950;-53
2022/08/21 08:09:45;;;;;;;;;;;20.30;54.10;;;;;;5144937;27;20363;-46
2022/08/21 08:12:11;;;;;;;;;;;20.20;54.30;;;;;;5142138;27;19962;-51
2022/08/21 08:14:37;;;;;;;;;;;20.30;53.90;;;;;;5146853;27;19923;-46
2022/08/21 08:17:03;;;;;;;;;;;20.20;54.20;;;;;;5144010;27;19927;-45
2022/08/21 08:19:28;;;;;;;;;;;20.30;54.30;;;;;;5144385;27;20444;-45
2022/08/21 08:21:54;;;;;;;;;;;20.20;54.20;;;;;;5149553;27;20293;-45
2022/08/21 08:24:20;;;;;;;;;;;20.30;54.00;;;;;;5144164;27;19935;-46
2022/08/21 08:26:46;;;;;;;;;;;20.20;54.10;;;;;;5146881;27;19923;-52
2022/08/21 08:29:12;;;;;;;;;;;20.20;54.10;;;;;;5147460;27;19927;-48
2022/08/21 08:31:38;;;;;;;;;;;20.30;53.50;;;;;;5139916;27;19975;-45
2022/08/21 08:34:04;;;;;;;;;;;20.10;54.00;;;;;;5147907;27;20343;-47
2022/08/21 08:36:34;;;;;;;;;;;20.20;53.70;;;;;;5143407;27;20017;-46
2022/08/21 08:39:03;;;;;;;;;;;20.20;53.80;;;;;;5143869;27;19927;-45
2022/08/21 08:41:30;;;;;;;;;;;20.10;53.90;;;;;;5149408;27;19923;-45
2022/08/21 08:43:59;;;;;;;;;;;20.00;54.00;;;;;;5143661;27;19929;-44
2022/08/21 08:46:34;;;;;;;;;;;20.20;53.60;;;;;;5142563;27;20249;-47
2022/08/21 08:49:03;;;;;;;;;;;20.20;53.40;;;;;;5144048;27;19928;-46
2022/08/21 08:51:38;;;;;;;;;;;20.10;53.70;;;;;;5141189;27;19944;-50
2022/08/21 08:54:09;;;;;;;;;;;20.10;53.70;;;;;;5140746;27;19927;-45
2022/08/21 08:56:35;;;;;;;;;;;20.00;53.90;;;;;;5147532;27;20315;-46
2022/08/21 08:59:02;;;;;;;;;;;20.10;53.70;;;;;;5143509;27;19930;-48
2022/08/21 09:01:28;;;;;;;;;;;20.20;53.00;;;;;;5147673;27;19933;-47
2022/08/21 09:03:54;;;;;;;;;;;20.20;53.20;;;;;;5143149;27;20370;-46
2022/08/21 09:06:43;;;;;;;;;;;20.10;53.50;;;;;;5143168;27;19927;-44
2022/08/21 09:09:16;;;;;;;;;;;20.20;53.40;;;;;;5135617;27;20100;-46
2022/08/21 09:11:45;;;;;;;;;;;20.10;53.70;;;;;;5143493;27;19923;-46
2022/08/21 09:14:30;;;;;;;;;;;20.20;53.40;;;;;;5141353;27;19929;-45
2022/08/21 09:17:01;;;;;;;;;;;20.30;52.40;;;;;;5148628;27;20025;-46
2022/08/21 09:19:46;;;;;;;;;;;20.10;52.70;;;;;;5143897;27;20339;-46
2022/08/21 09:22:30;;;;;;;;;;;20.10;52.60;;;;;;5142909;27;19927;-45
2022/08/21 09:24:59;;;;;;;;;;;20.00;52.50;;;;;;5142998;27;20370;-51
2022/08/21 09:27:25;;;;;;;;;;;20.00;52.30;;;;;;5143633;27;19946;-46
2022/08/21 09:29:54;;;;;;;;;;;20.30;51.80;;;;;;5142311;27;19934;-45
2022/08/21 09:32:20;;;;;;;;;;;20.20;51.90;;;;;;5148130;27;19972;-44
2022/08/21 09:34:55;;;;;;;;;;;20.20;51.50;;;;;;5142748;27;19927;-46
2022/08/21 09:37:21;;;;;;;;;;;20.20;51.70;;;;;;5142960;27;19923;-44
2022/08/21 09:39:47;;;;;;;;;;;20.10;51.90;;;;;;5148326;27;19927;-46
2022/08/21 09:42:20;;;;;;;;;;;20.30;51.60;;;;;;5142695;27;20347;-43
2022/08/21 09:44:46;;;;;;;;;;;20.00;51.80;;;;;;5139512;27;19929;-47
2022/08/21 09:47:14;;;;;;;;;;;20.10;51.60;;;;;;5145809;27;19923;-44
2022/08/21 09:49:41;;;;;;;;;;;20.00;51.60;;;;;;5142426;27;19927;-46
2022/08/21 09:52:17;;;;;;;;;;;20.10;51.70;;;;;;5142659;27;19927;-47
2022/08/21 09:54:43;;;;;;;;;;;20.20;51.60;;;;;;5146919;27;21891;-44
2022/08/21 09:59:54;;;;;;;;;;;20.20;51.60;;;;;;5142342;27;19933;-47
2022/08/21 10:02:19;;;;;;;;;;;20.10;51.50;;;;;;5142709;27;20508;-46
2022/08/21 10:04:49;;;;;;;;;;;20.20;51.40;;;;;;5138945;27;20237;-47
2022/08/21 10:07:15;;;;;;;;;;;20.20;51.70;;;;;;5147467;27;19931;-46
2022/08/21 10:09:41;;;;;;;;;;;20.20;51.60;;;;;;5123946;27;20389;-46
2022/08/21 10:12:15;;;;;;;;;;;20.20;51.60;;;;;;5141607;27;19977;-47
2022/08/21 10:14:41;;;;;;;;;;;20.20;51.60;;;;;;5147450;27;20006;-45
2022/08/21 10:17:08;;;;;;;;;;;20.20;51.50;;;;;;5142194;27;19934;-44
2022/08/21 10:19:37;;;;;;;;;;;20.30;51.30;;;;;;5140922;27;19927;-46
2022/08/21 10:22:15;;;;;;;;;;;20.20;51.50;;;;;;5143473;27;19945;-53
2022/08/21 10:25:00;;;;;;;;;;;20.10;51.60;;;;;;5138723;27;19972;-44
2022/08/21 10:27:30;;;;;;;;;;;20.30;51.20;;;;;;5142236;27;19923;-45
2022/08/21 10:29:58;;;;;;;;;;;20.30;51.20;;;;;;5145124;27;19934;-44
2022/08/21 10:32:35;;;;;;;;;;;20.20;51.50;;;;;;5142097;27;19933;-45
2022/08/21 10:35:14;;;;;;;;;;;20.40;50.90;;;;;;5142019;27;20373;-46
2022/08/21 10:37:45;;;;;;;;;;;20.30;51.30;;;;;;5147608;27;20323;-45
2022/08/21 10:40:31;;;;;;;;;;;20.20;51.30;;;;;;5138165;27;19923;-48
2022/08/21 10:43:16;;;;;;;;;;;20.30;51.20;;;;;;5141023;27;19949;-48
2022/08/21 10:46:00;;;;;;;;;;;20.30;51.40;;;;;;5147370;27;20009;-47
2022/08/21 10:48:34;;;;;;;;;;;20.40;50.80;;;;;;5142422;27;19971;-47
2022/08/21 10:51:05;;;;;;;;;;;20.30;51.00;;;;;;5142061;27;19927;-48
2022/08/21 10:53:50;;;;;;;;;;;20.50;50.60;;;;;;5147372;27;19923;-47
2022/08/21 10:56:15;;;;;;;;;;;20.30;51.00;;;;;;5144241;27;19923;-48
2022/08/21 10:59:02;;;;;;;;;;;20.50;50.60;;;;;;5137976;27;20455;-46
2022/08/21 11:01:29;;;;;;;;;;;20.40;50.50;;;;;;5145414;27;20013;-46
2022/08/21 11:04:03;;;;;;;;;;;20.30;50.50;;;;;;5141775;27;19923;-47
2022/08/21 11:06:30;;;;;;;;;;;20.40;50.20;;;;;;5140239;27;19923;-45
2022/08/21 11:09:17;;;;;;;;;;;20.30;50.40;;;;;;5147133;27;19923;-44
2022/08/21 11:11:55;;;;;;;;;;;20.30;50.30;;;;;;5143174;27;20031;-45
2022/08/21 11:14:23;;;;;;;;;;;20.30;50.10;;;;;;5141647;27;19922;-45
2022/08/21 11:16:50;;;;;;;;;;;20.30;50.30;;;;;;5143593;27;19923;-52
2022/08/21 11:19:30;;;;;;;;;;;20.20;50.50;;;;;;5139861;27;19923;-44
2022/08/21 11:22:00;;;;;;;;;;;20.40;50.10;;;;;;5141484;27;20297;-47
2022/08/21 11:24:34;;;;;;;;;;;20.30;50.20;;;;;;5149059;27;19976;-46
2022/08/21 11:27:03;;;;;;;;;;;20.30;50.80;;;;;;5145481;27;19970;-45
2022/08/21 11:29:29;;;;;;;;;;;20.50;50.50;;;;;;5145579;27;20358;-46
2022/08/21 11:31:55;;;;;;;;;;;20.40;50.90;;;;;;5150728;27;19930;-44
2022/08/21 11:34:32;;;;;;;;;;;20.50;50.80;;;;;;5142616;27;20384;-49
2022/08/21 11:37:19;;;;;;;;;;;20.40;50.80;;;;;;5140909;27;20446;-45
2022/08/21 11:39:50;;;;;;;;;;;20.60;50.40;;;;;;5150337;27;20010;-44
2022/08/21 11:42:35;;;;;;;;;;;20.60;50.50;;;;;;5145079;27;19933;-46
2022/08/21 11:45:00;;;;;;;;;;;20.30;50.40;;;;;;5144886;27;19940;-49
2022/08/21 11:47:40;;;;;;;;;;;20.40;50.30;;;;;;5150025;27;20090;-46
2022/08/21 11:50:13;;;;;;;;;;;20.40;50.30;;;;;;5143519;27;20026;-45
2022/08/21 11:52:53;;;;;;;;;;;20.50;50.40;;;;;;5142549;27;20397;-49
2022/08/21 11:55:23;;;;;;;;;;;20.40;50.30;;;;;;5129221;27;19954;-46
2022/08/21 11:57:58;;;;;;;;;;;20.60;49.80;;;;;;5144263;27;19931;-45
2022/08/21 12:00:26;;;;;;;;;;;20.60;49.70;;;;;;5143288;27;19933;-45
2022/08/21 12:02:53;;;;;;;;;;;20.40;50.00;;;;;;5148618;27;20071;-47
2022/08/21 12:05:23;;;;;;;;;;;20.60;49.60;;;;;;5144418;27;19923;-46
2022/08/21 12:07:58;;;;;;;;;;;20.40;49.70;;;;;;5144492;27;19931;-49
2022/08/21 12:10:30;;;;;;;;;;;20.40;49.60;;;;;;5149696;27;19922;-46
2022/08/21 12:13:04;;;;;;;;;;;20.40;49.60;;;;;;5139892;27;19923;-46
2022/08/21 12:15:30;;;;;;;;;;;20.60;49.20;;;;;;5143831;27;20314;-46
2022/08/21 12:17:56;;;;;;;;;;;20.40;49.50;;;;;;5149790;27;20010;-46
2022/08/21 12:20:37;;;;;;;;;;;20.40;49.40;;;;;;5144486;27;19927;-46
2022/08/21 12:23:04;;;;;;;;;;;20.30;49.40;;;;;;5144421;27;19987;-46
2022/08/21 12:25:41;;;;;;;;;;;20.30;49.10;;;;;;5149461;27;19923;-49
2022/08/21 12:28:10;;;;;;;;;;;20.50;48.80;;;;;;5144081;27;20365;-45
2022/08/21 12:30:37;;;;;;;;;;;20.50;48.90;;;;;;5143422;27;19923;-55
2022/08/21 12:33:04;;;;;;;;;;;20.60;48.70;;;;;;5145974;27;20290;-51
2022/08/21 12:35:36;;;;;;;;;;;20.60;48.80;;;;;;5143144;27;20358;-47
2022/08/21 12:38:15;;;;;;;;;;;20.40;49.40;;;;;;5149317;27;19954;-48
2022/08/21 12:40:42;;;;;;;;;;;20.70;48.70;;;;;;5144096;27;20308;-46
2022/08/21 12:43:31;;;;;;;;;;;20.50;48.90;;;;;;5144214;27;19946;-45
2022/08/21 12:46:00;;;;;;;;;;;20.50;48.90;;;;;;5140573;27;19975;-47
2022/08/21 12:48:26;;;;;;;;;;;20.50;49.00;;;;;;5141051;27;20301;-49
2022/08/21 12:50:54;;;;;;;;;;;20.60;48.60;;;;;;5140308;27;19931;-46
2022/08/21 12:53:40;;;;;;;;;;;20.50;48.70;;;;;;5148921;27;19923;-47
2022/08/21 12:56:09;;;;;;;;;;;20.70;48.50;;;;;;5143047;27;19929;-47
2022/08/21 12:58:35;;;;;;;;;;;20.70;48.50;;;;;;5143467;27;20382;-47
2022/08/21 13:01:05;;;;;;;;;;;20.50;48.80;;;;;;5148856;27;19923;-45
2022/08/21 13:03:31;;;;;;;;;;;20.60;48.50;;;;;;5143353;27;19923;-50
2022/08/21 13:05:57;;;;;;;;;;;20.80;48.00;;;;;;5139194;27;20298;-47
2022/08/21 13:08:23;;;;;;;;;;;20.40;48.80;;;;;;5145231;27;20029;-48
2022/08/21 13:10:49;;;;;;;;;;;20.50;48.70;;;;;;5141518;27;20381;-45
2022/08/21 13:13:19;;;;;;;;;;;20.50;48.50;;;;;;5144876;27;20026;-56
2022/08/21 13:15:45;;;;;;;;;;;20.60;48.40;;;;;;5147409;27;19923;-46
2022/08/21 13:18:19;;;;;;;;;;;20.60;48.10;;;;;;5143255;27;19923;-49
2022/08/21 13:20:44;;;;;;;;;;;20.50;48.20;;;;;;5148284;27;20450;-48
2022/08/21 13:23:24;;;;;;;;;;;20.50;48.30;;;;;;5143188;27;19923;-47
2022/08/21 13:25:50;;;;;;;;;;;20.60;48.00;;;;;;5138856;27;20071;-47
2022/08/21 13:28:16;;;;;;;;;;;20.50;48.40;;;;;;5147562;27;20393;-47
2022/08/21 13:30:43;;;;;;;;;;;20.40;48.20;;;;;;5143044;27;19930;-45
2022/08/21 13:33:09;;;;;;;;;;;20.60;47.90;;;;;;5142756;27;20380;-48
2022/08/21 13:35:36;;;;;;;;;;;20.80;47.70;;;;;;5148243;27;19974;-48
2022/08/21 13:38:02;;;;;;;;;;;20.80;47.70;;;;;;5142883;27;20000;-47
2022/08/21 13:40:29;;;;;;;;;;;20.80;47.60;;;;;;5141635;27;20116;-47
2022/08/21 13:42:55;;;;;;;;;;;20.60;48.00;;;;;;5127753;27;20214;-47
2022/08/21 13:45:25;;;;;;;;;;;20.60;47.90;;;;;;5139964;27;19953;-46
2022/08/21 13:47:50;;;;;;;;;;;20.80;47.40;;;;;;5146891;27;21343;-46
2022/08/21 13:50:17;;;;;;;;;;;20.60;47.80;;;;;;5142351;27;19923;-47
2022/08/21 13:52:47;;;;;;;;;;;20.60;47.70;;;;;;5139529;27;20301;-46
2022/08/21 13:55:13;;;;;;;;;;;20.40;48.10;;;;;;5148137;27;19923;-45
2022/08/21 13:57:39;;;;;;;;;;;20.50;48.10;;;;;;5142663;27;19937;-45
2022/08/21 14:00:18;;;;;;;;;;;20.50;47.80;;;;;;5141290;27;20573;-46
2022/08/21 14:02:45;;;;;;;;;;;20.60;47.80;;;;;;5143594;27;19944;-46
2022/08/21 14:05:15;;;;;;;;;;;20.70;47.50;;;;;;5141822;27;19975;-45
2022/08/21 14:07:41;;;;;;;;;;;20.80;47.30;;;;;;5142745;27;19931;-46
2022/08/21 14:10:28;;;;;;;;;;;20.80;47.30;;;;;;5147971;27;19938;-47
2022/08/21 14:12:54;;;;;;;;;;;20.80;47.30;;;;;;5142431;27;19931;-47
2022/08/21 14:15:24;;;;;;;;;;;20.50;47.40;;;;;;5142477;27;19930;-46
2022/08/21 14:17:50;;;;;;;;;;;20.70;47.10;;;;;;5147840;27;19929;-48
2022/08/21 14:20:32;;;;;;;;;;;20.50;47.50;;;;;;5138709;27;19927;-48
2022/08/21 14:22:58;;;;;;;;;;;20.80;46.90;;;;;;5140971;27;20301;-53
2022/08/21 14:25:24;;;;;;;;;;;20.80;46.70;;;;;;5147572;27;19938;-47